Time;durP1;ratioP1;P1;durP2;ratioP2;P2;SDS_P1;SDS_P2;PMS_P1;PMS_P2;Temp;Humidity;BMP_temperature;BMP_pressure;BME280_temperature;BME280_humidity;BME280_pressure;Samples;Min_cycle;Max_cycle;Signal;HPM_P1;HPM_P2
2022/10/09 00:00:39;;;;;;;9.52;6.03;;;;;;;5.77;100.00;101540.19;5060237;28;20119;-75
2022/10/09 00:03:05;;;;;;;6.95;5.55;;;;;;;5.74;100.00;101537.44;5061597;28;20123;-76
2022/10/09 00:05:30;;;;;;;10.57;5.85;;;;;;;5.71;100.00;101536.53;5060878;28;20040;-75
2022/10/09 00:07:55;;;;;;;6.88;5.03;;;;;;;5.65;100.00;101536.31;5065723;28;20128;-75
2022/10/09 00:10:21;;;;;;;6.63;5.60;;;;;;;5.57;100.00;101543.06;5059345;28;20485;-75
2022/10/09 00:12:46;;;;;;;8.27;6.57;;;;;;;5.53;100.00;101535.97;5063880;28;20558;-75
2022/10/09 00:15:12;;;;;;;9.07;5.72;;;;;;;5.57;100.00;101545.69;5063774;28;20144;-75
2022/10/09 00:17:38;;;;;;;8.93;6.05;;;;;;;5.54;100.00;101542.97;5064783;28;20115;-75
2022/10/09 00:20:04;;;;;;;9.52;5.85;;;;;;;5.51;100.00;101540.28;5062313;28;20041;-75
2022/10/09 00:22:29;;;;;;;9.93;6.25;;;;;;;5.51;100.00;101547.25;5065570;28;20029;-75
2022/10/09 00:24:54;;;;;;;7.75;5.82;;;;;;;5.48;100.00;101548.03;5061461;28;20037;-75
2022/10/09 00:27:23;;;;;;;7.35;6.22;;;;;;;5.45;100.00;101556.69;5064274;28;20091;-75
2022/10/09 00:29:49;;;;;;;9.27;6.85;;;;;;;5.41;100.00;101553.91;5062054;28;20036;-74
2022/10/09 00:32:15;;;;;;;10.60;7.38;;;;;;;5.46;100.00;101542.75;5059996;28;20043;-75
2022/10/09 00:34:41;;;;;;;7.95;6.57;;;;;;;5.47;100.00;101549.75;5062011;28;20044;-75
2022/10/09 00:37:06;;;;;;;7.85;6.03;;;;;;;5.41;100.00;101552.19;5064824;28;20091;-75
2022/10/09 00:39:31;;;;;;;9.00;6.32;;;;;;;5.30;100.00;101560.56;5062720;28;20044;-75
2022/10/09 00:41:57;;;;;;;6.43;5.80;;;;;;;5.21;100.00;101551.56;5063931;28;20056;-75
2022/10/09 00:44:49;;;;;;;7.55;5.85;;;;;;;5.19;100.00;101558.47;5063759;28;20057;-75
2022/10/09 00:47:29;;;;;;;7.10;5.80;;;;;;;5.16;100.00;101550.53;5062418;28;20047;-75
2022/10/09 00:50:12;;;;;;;8.23;6.57;;;;;;;5.09;100.00;101556.41;5054927;28;20086;-75
2022/10/09 00:52:38;;;;;;;7.28;5.85;;;;;;;5.01;100.00;101557.88;5059560;28;20055;-75
2022/10/09 00:55:05;;;;;;;8.02;5.85;;;;;;;5.01;100.00;101556.16;5061325;28;20498;-74
2022/10/09 00:57:32;;;;;;;7.07;5.45;;;;;;;5.02;100.00;101562.25;5063214;28;20041;-75
2022/10/09 01:00:00;;;;;;;7.78;6.25;;;;;;;5.03;100.00;101558.78;5062424;28;20029;-75
2022/10/09 01:02:26;;;;;;;8.95;6.32;;;;;;;5.07;100.00;101557.19;5064820;28;20444;-74
2022/10/09 01:04:51;;;;;;;9.50;5.72;;;;;;;5.06;100.00;101551.06;5061638;28;20037;-74
2022/10/09 01:07:28;;;;;;;11.57;6.97;;;;;;;5.13;100.00;101562.63;5063811;28;20041;-75
2022/10/09 01:10:18;;;;;;;7.38;5.82;;;;;;;5.17;100.00;101557.53;5064357;28;20114;-75
2022/10/09 01:13:08;;;;;;;10.80;7.95;;;;;;;5.17;100.00;101557.53;5063668;28;20454;-74
2022/10/09 01:15:50;;;;;;;8.98;6.57;;;;;;;5.13;100.00;101558.25;5063185;28;20048;-75
2022/10/09 01:18:43;;;;;;;9.93;7.35;;;;;;;5.11;100.00;101559.97;5061642;28;20090;-75
2022/10/09 01:21:18;;;;;;;15.07;7.10;;;;;;;5.11;100.00;101564.28;5062543;28;20379;-75
2022/10/09 01:24:00;;;;;;;13.43;7.45;;;;;;;5.19;100.00;101562.84;5058716;28;20043;-75
2022/10/09 01:26:44;;;;;;;11.05;6.75;;;;;;;5.28;100.00;101566.59;5060898;28;20108;-75
2022/10/09 01:29:11;;;;;;;9.57;7.25;;;;;;;5.28;100.00;101558.75;5061597;28;20553;-75
2022/10/09 01:31:41;;;;;;;12.27;7.22;;;;;;;5.34;100.00;101567.66;5064223;28;20111;-74
2022/10/09 01:34:08;;;;;;;13.85;6.78;;;;;;;5.35;100.00;101566.81;5061846;28;20095;-75
2022/10/09 01:36:35;;;;;;;7.88;6.80;;;;;;;5.34;100.00;101572.88;5062255;28;20047;-75
2022/10/09 01:39:03;;;;;;;9.40;7.28;;;;;;;5.27;100.00;101575.31;5063190;28;20036;-75
2022/10/09 01:41:29;;;;;;;11.32;7.55;;;;;;;5.20;100.00;101575.94;5059192;28;20518;-74
2022/10/09 01:43:54;;;;;;;8.70;6.78;;;;;;;5.17;100.00;101578.47;5063540;28;20056;-75
2022/10/09 01:46:31;;;;;;;10.88;7.55;;;;;;;5.18;100.00;101575.00;5061454;28;20098;-75
2022/10/09 01:49:11;;;;;;;12.90;6.93;;;;;;;5.15;100.00;101585.38;5060647;28;20086;-75
2022/10/09 01:51:49;;;;;;;9.88;7.88;;;;;;;5.09;100.00;101581.69;5056918;28;20029;-75
2022/10/09 01:54:21;;;;;;;11.93;7.63;;;;;;;5.02;100.00;101581.47;5057161;28;20025;-74
2022/10/09 01:56:48;;;;;;;10.50;6.25;;;;;;;4.96;100.00;101585.63;5061836;28;20461;-75
2022/10/09 01:59:17;;;;;;;8.63;5.88;;;;;;;4.92;100.00;101583.72;5059413;28;20483;-75
2022/10/09 02:01:45;;;;;;;7.70;6.22;;;;;;;4.87;100.00;101580.94;5054849;28;20116;-74
2022/10/09 02:04:13;;;;;;;12.20;6.05;;;;;;;4.84;100.00;101591.31;5058831;28;20498;-74
2022/10/09 02:06:40;;;;;;;8.25;5.93;;;;;;;4.80;100.00;101589.44;5058107;28;20420;-75
2022/10/09 02:09:11;;;;;;;6.80;5.70;;;;;;;4.79;100.00;101593.78;5060972;28;20032;-75
2022/10/09 02:11:39;;;;;;;7.13;5.60;;;;;;;4.80;100.00;101599.91;5063574;28;20036;-74
2022/10/09 02:14:04;;;;;;;11.43;6.10;;;;;;;4.74;100.00;101592.75;5059654;28;20639;-74
2022/10/09 02:16:39;;;;;;;11.18;5.68;;;;;;;4.63;100.00;101596.69;5061244;28;20048;-74
2022/10/09 02:19:10;;;;;;;13.45;6.28;;;;;;;4.56;100.00;101595.59;5060102;28;20040;-74
2022/10/09 02:21:46;;;;;;;11.90;5.97;;;;;;;4.55;100.00;101595.53;5071357;28;20440;-74
2022/10/09 02:24:18;;;;;;;13.23;8.45;;;;;;;4.60;100.00;101597.47;5055973;28;20075;-74
2022/10/09 02:26:43;;;;;;;;;;;;;;;4.60;100.00;101599.19;5058540;28;20036;-74
2022/10/09 02:29:11;;;;;;;7.07;5.38;;;;;;;4.58;100.00;101608.72;5060763;28;20057;-74
2022/10/09 02:31:39;;;;;;;8.10;5.68;;;;;;;4.57;100.00;101606.94;5059810;28;20119;-74
2022/10/09 02:34:08;;;;;;;7.22;6.50;;;;;;;4.55;100.00;101603.38;5062657;28;20114;-74
2022/10/09 02:36:34;;;;;;;32.72;6.40;;;;;;;4.54;100.00;101599.88;5055919;28;20499;-74
2022/10/09 02:38:59;;;;;;;10.15;6.15;;;;;;;4.53;100.00;101607.66;5062331;28;20039;-74
2022/10/09 02:41:25;;;;;;;47.42;8.43;;;;;;;4.53;100.00;101608.56;5061149;28;20043;-74
2022/10/09 02:43:51;;;;;;;15.07;7.57;;;;;;;4.52;100.00;101612.00;5061016;28;20437;-74
2022/10/09 02:46:16;;;;;;;7.63;6.10;;;;;;;4.54;100.00;101609.44;5062049;28;20028;-74
2022/10/09 02:48:41;;;;;;;36.90;9.20;;;;;;;4.54;100.00;101618.19;5059458;28;20082;-74
2022/10/09 02:51:07;;;;;;;10.52;7.18;;;;;;;4.49;100.00;101614.50;5063063;28;20079;-74
2022/10/09 02:53:32;;;;;;;8.70;7.22;;;;;;;4.49;100.00;101611.00;5060117;28;20040;-74
2022/10/09 02:55:58;;;;;;;11.57;7.07;;;;;;;4.51;100.00;101612.84;5061628;28;20033;-74
2022/10/09 02:58:23;;;;;;;9.90;6.40;;;;;;;4.52;100.00;101614.63;5061122;28;20048;-74
2022/10/09 03:00:50;;;;;;;50.67;10.45;;;;;;;4.43;100.00;101621.22;5060596;28;20033;-74
2022/10/09 03:03:15;;;;;;;28.75;8.23;;;;;;;4.41;100.00;101612.47;5061207;28;20036;-74
2022/10/09 03:05:41;;;;;;;12.30;6.80;;;;;;;4.42;100.00;101624.69;5059242;28;20083;-74
2022/10/09 03:08:06;;;;;;;8.52;6.13;;;;;;;4.41;100.00;101620.31;5062397;28;20695;-74
2022/10/09 03:10:31;;;;;;;142.13;12.98;;;;;;;4.39;100.00;101628.06;5060951;28;20036;-74
2022/10/09 03:12:57;;;;;;;435.13;32.53;;;;;;;4.35;100.00;101627.09;5061199;28;20593;-74
2022/10/09 03:15:23;;;;;;;8.85;6.57;;;;;;;4.29;100.00;101631.19;5061236;28;20762;-74
2022/10/09 03:17:48;;;;;;;60.47;9.45;;;;;;;4.13;100.00;101629.72;5059474;28;20036;-74
2022/10/09 03:20:14;;;;;;;7.15;5.85;;;;;;;4.06;100.00;101632.94;5059637;28;20033;-74
2022/10/09 03:22:39;;;;;;;9.10;5.82;;;;;;;4.05;100.00;101644.22;5062536;28;20056;-74
2022/10/09 03:25:05;;;;;;;6.35;5.60;;;;;;;4.05;100.00;101636.38;5059925;28;20055;-74
2022/10/09 03:27:30;;;;;;;8.30;6.88;;;;;;;4.05;100.00;101646.84;5060189;28;20036;-74
2022/10/09 03:29:57;;;;;;;8.02;6.97;;;;;;;4.02;100.00;101646.72;5060605;28;20376;-74
2022/10/09 03:32:22;;;;;;;7.30;6.10;;;;;;;4.02;100.00;101642.38;5061760;28;20036;-74
2022/10/09 03:34:48;;;;;;;9.35;6.43;;;;;;;4.01;100.00;101647.53;5059230;28;20040;-74
2022/10/09 03:37:13;;;;;;;11.60;6.35;;;;;;;4.03;100.00;101643.25;5053468;28;20029;-74
2022/10/09 03:39:38;;;;;;;7.85;6.07;;;;;;;4.05;100.00;101652.06;5057190;28;20051;-74
2022/10/09 03:42:04;;;;;;;8.30;6.93;;;;;;;4.04;100.00;101653.78;5055165;28;20036;-74
2022/10/09 03:44:29;;;;;;;11.20;6.55;;;;;;;4.01;100.00;101656.28;5064526;28;20033;-74
2022/10/09 03:46:54;;;;;;;9.98;6.93;;;;;;;3.98;100.00;101660.47;5063837;28;20037;-74
2022/10/09 03:49:20;;;;;;;30.50;7.18;;;;;;;3.95;100.00;101667.38;5063623;28;20032;-74
2022/10/09 03:51:45;;;;;;;12.20;6.50;;;;;;;3.89;100.00;101674.09;5061619;28;20033;-74
2022/10/09 03:54:10;;;;;;;22.23;7.10;;;;;;;3.85;100.00;101673.09;5066055;28;20406;-74
2022/10/09 03:56:36;;;;;;;30.10;7.57;;;;;;;3.83;100.00;101674.75;5063187;28;20395;-74
2022/10/09 03:59:04;;;;;;;73.38;8.73;;;;;;;3.78;100.00;101673.66;5060190;28;20068;-74
2022/10/09 04:01:29;;;;;;;20.23;5.85;;;;;;;3.74;100.00;101677.84;5064978;28;20040;-74
2022/10/09 04:03:55;;;;;;;5.80;4.60;;;;;;;3.59;100.00;101665.91;5062989;28;20102;-74
2022/10/09 04:06:20;;;;;;;18.63;5.80;;;;;;;3.54;100.00;101678.81;5065237;28;20494;-74
2022/10/09 04:08:45;;;;;;;6.55;5.40;;;;;;;3.55;100.00;101674.47;5063274;28;20044;-74
2022/10/09 04:11:11;;;;;;;7.72;5.32;;;;;;;3.63;100.00;101678.28;5059605;28;20093;-74
2022/10/09 04:13:36;;;;;;;10.48;6.97;;;;;;;3.69;100.00;101668.97;5063668;28;20433;-74
2022/10/09 04:16:01;;;;;;;9.25;6.50;;;;;;;3.75;100.00;101678.78;5063696;28;20445;-74
2022/10/09 04:18:27;;;;;;;6.95;5.72;;;;;;;3.73;100.00;101675.19;5061625;28;20487;-74
2022/10/09 04:20:54;;;;;;;8.93;6.95;;;;;;;3.72;100.00;101674.31;5058390;28;20403;-74
2022/10/09 04:23:23;;;;;;;18.02;11.82;;;;;;;3.80;100.00;101668.47;5058505;28;20040;-74
2022/10/09 04:25:53;;;;;;;22.23;11.57;;;;;;;3.87;100.00;101673.13;5064192;28;20173;-74
2022/10/09 04:28:18;;;;;;;18.67;10.85;;;;;;;3.88;100.00;101670.59;5064516;28;20044;-74
2022/10/09 04:30:44;;;;;;;11.43;7.95;;;;;;;3.92;100.00;101677.69;5062536;28;20028;-74
2022/10/09 04:33:09;;;;;;;13.25;9.88;;;;;;;3.93;100.00;101674.28;5062000;28;20051;-74
2022/10/09 04:35:34;;;;;;;41.83;11.60;;;;;;;3.92;100.00;101672.47;5060339;28;20450;-74
2022/10/09 04:38:00;;;;;;;12.35;9.55;;;;;;;3.85;100.00;101673.09;5062817;28;20514;-74
2022/10/09 04:40:25;;;;;;;13.13;9.27;;;;;;;3.85;100.00;101675.69;5063898;28;20671;-74
2022/10/09 04:42:50;;;;;;;11.75;10.07;;;;;;;3.84;100.00;101670.41;5063792;28;20037;-74
2022/10/09 04:45:16;;;;;;;21.60;16.52;;;;;;;3.85;100.00;101675.69;5062732;28;20040;-74
2022/10/09 04:47:41;;;;;;;18.60;13.63;;;;;;;3.84;100.00;101671.28;5064834;28;20028;-74
2022/10/09 04:50:07;;;;;;;31.33;18.98;;;;;;;3.80;100.00;101673.72;5060281;28;20093;-74
2022/10/09 04:52:32;;;;;;;19.92;12.88;;;;;;;3.81;100.00;101676.41;5064577;28;20127;-74
2022/10/09 04:54:57;;;;;;;13.07;9.65;;;;;;;3.79;100.00;101685.88;5062654;28;20068;-74
2022/10/09 04:57:23;;;;;;;14.57;10.32;;;;;;;3.78;100.00;101684.13;5063895;28;20045;-74
2022/10/09 04:59:48;;;;;;;10.93;8.90;;;;;;;3.74;100.00;101682.19;5063051;28;20040;-74
2022/10/09 05:02:13;;;;;;;18.85;9.65;;;;;;;3.76;100.00;101680.53;5060196;28;20040;-74
2022/10/09 05:04:38;;;;;;;17.40;11.05;;;;;;;3.71;100.00;101684.69;5063534;28;20040;-73
2022/10/09 05:07:04;;;;;;;19.65;13.57;;;;;;;3.71;100.00;101682.06;5056963;28;20032;-73
2022/10/09 05:09:29;;;;;;;25.48;15.95;;;;;;;3.68;100.00;101682.84;5049065;28;20044;-73
2022/10/09 05:11:54;;;;;;;30.63;14.68;;;;;;;3.66;100.00;101688.81;5062544;28;20037;-73
2022/10/09 05:14:20;;;;;;;25.70;13.63;;;;;;;3.65;100.00;101692.28;5062937;28;20078;-73
2022/10/09 05:16:45;;;;;;;16.95;11.52;;;;;;;3.65;100.00;101692.28;5063346;28;20059;-73
2022/10/09 05:19:10;;;;;;;24.80;15.73;;;;;;;3.69;100.00;101691.56;5061627;28;20041;-73
2022/10/09 05:21:36;;;;;;;21.85;15.75;;;;;;;3.70;100.00;101693.38;5064629;28;20041;-73
2022/10/09 05:24:01;;;;;;;19.83;16.00;;;;;;;3.69;100.00;101691.56;5061199;28;20037;-73
2022/10/09 05:26:27;;;;;;;17.80;11.88;;;;;;;3.64;100.00;101696.63;5062402;28;20029;-73
2022/10/09 05:28:52;;;;;;;100.15;15.85;;;;;;;3.59;100.00;101692.94;5062961;28;20036;-73
2022/10/09 05:31:24;;;;;;;14.50;11.30;;;;;;;3.57;100.00;101698.91;5063049;28;20086;-73
2022/10/09 05:33:50;;;;;;;15.82;12.32;;;;;;;3.61;100.00;101695.59;5055969;28;20033;-73
2022/10/09 05:36:16;;;;;;;16.73;12.02;;;;;;;3.63;100.00;101694.81;5061976;28;20040;-73
2022/10/09 05:38:41;;;;;;;80.35;19.80;;;;;;;3.67;100.00;101698.47;5063144;28;20047;-73
2022/10/09 05:41:09;;;;;;;22.08;14.68;;;;;;;3.72;100.00;101699.50;5062325;28;20083;-73
2022/10/09 05:43:38;;;;;;;20.65;15.88;;;;;;;3.77;100.00;101707.53;5061433;28;20111;-73
2022/10/09 05:46:23;;;;;;;18.98;13.18;;;;;;;3.81;100.00;101706.84;5039508;28;20133;-73
2022/10/09 05:48:56;;;;;;;19.23;12.00;;;;;;;3.85;100.00;101712.25;5060515;28;20064;-73
2022/10/09 05:51:24;;;;;;;18.00;12.55;;;;;;;3.87;100.00;101709.69;5058027;28;20514;-73
2022/10/09 05:53:50;;;;;;;14.63;10.45;;;;;;;3.89;100.00;101713.25;5062199;28;20036;-73
2022/10/09 05:56:27;;;;;;;10.35;8.48;;;;;;;3.88;100.00;101714.09;5060506;28;20124;-73
2022/10/09 05:58:57;;;;;;;10.38;8.75;;;;;;;3.92;100.00;101718.59;5056424;28;20029;-73
2022/10/09 06:01:26;;;;;;;13.60;9.52;;;;;;;4.00;100.00;101721.53;5062237;28;20126;-73
2022/10/09 06:03:53;;;;;;;11.43;9.30;;;;;;;4.05;100.00;101720.88;5058119;28;20044;-73
2022/10/09 06:06:21;;;;;;;11.48;9.40;;;;;;;4.13;100.00;101727.28;5059669;28;20049;-74
2022/10/09 06:08:47;;;;;;;11.38;8.52;;;;;;;4.18;100.00;101723.13;5062270;28;20036;-72
2022/10/09 06:11:32;;;;;;;9.10;7.15;;;;;;;4.23;100.00;101732.88;5059359;28;20373;-73
2022/10/09 06:13:59;;;;;;;9.05;6.65;;;;;;;4.25;100.00;101732.09;5058079;28;20048;-73
2022/10/09 06:16:27;;;;;;;9.65;7.40;;;;;;;4.33;100.00;101727.19;5061457;28;20037;-73
2022/10/09 06:18:53;;;;;;;7.03;6.32;;;;;;;4.43;100.00;101726.69;5062691;28;20059;-73
2022/10/09 06:21:19;;;;;;;7.45;6.63;;;;;;;4.52;100.00;101734.88;5060137;28;20029;-75
2022/10/09 06:23:51;;;;;;;7.57;6.88;;;;;;;4.59;100.00;101734.28;5056613;28;20044;-73
2022/10/09 06:26:18;;;;;;;8.80;6.85;;;;;;;4.66;100.00;101732.75;5060052;28;20111;-73
2022/10/09 06:28:43;;;;;;;6.75;6.07;;;;;;;4.74;100.00;101744.44;5056962;28;20460;-73
2022/10/09 06:31:14;;;;;;;8.05;7.25;;;;;;;4.81;100.00;101748.16;5060312;28;20044;-72
2022/10/09 06:33:41;;;;;;;14.73;7.55;;;;;;;4.82;100.00;101744.69;5056822;28;20029;-72
2022/10/09 06:36:15;;;;;;;10.82;7.15;;;;;;;4.94;100.00;101739.03;5059845;28;20056;-73
2022/10/09 06:38:41;;;;;;;11.15;7.00;;;;;;;5.08;100.00;101743.00;5062839;28;20409;-73
2022/10/09 06:41:13;;;;;;;9.07;6.88;;;;;;;5.21;100.00;101750.50;5059710;28;20041;-72
2022/10/09 06:43:39;;;;;;;9.63;8.37;;;;;;;5.35;100.00;101756.19;5057351;28;20036;-75
2022/10/09 06:46:08;;;;;;;8.07;6.88;;;;;;;5.48;100.00;101757.50;5048982;28;20345;-73
2022/10/09 06:48:35;;;;;;;11.20;8.57;;;;;;;5.60;100.00;101757.91;5057950;28;20093;-72
2022/10/09 06:51:06;;;;;;;12.70;10.18;;;;;;;5.75;100.00;101754.91;5057822;28;20041;-73
2022/10/09 06:53:40;;;;;;;12.10;7.63;;;;;;;5.87;100.00;101764.94;5054258;28;20033;-72
2022/10/09 06:56:07;;;;;;;12.55;10.48;;;;;;;5.98;100.00;101763.56;5057142;28;20577;-73
2022/10/09 06:58:33;;;;;;;12.02;7.75;;;;;;;6.14;100.00;101772.81;5054447;28;20477;-73
2022/10/09 07:01:11;;;;;;;13.40;10.00;;;;;;;6.31;100.00;101762.84;5061107;28;20042;-73
2022/10/09 07:03:38;;;;;;;11.88;9.20;;;;;;;6.44;100.00;101772.84;5054209;28;20029;-72
2022/10/09 07:06:14;;;;;;;13.88;8.52;;;;;;;6.57;100.00;101779.38;5061646;28;20033;-73
2022/10/09 07:08:41;;;;;;;12.50;8.93;;;;;;;6.69;100.00;101787.63;5060832;28;20039;-73
2022/10/09 07:11:22;;;;;;;10.63;8.98;;;;;;;6.84;100.00;101786.28;5060983;28;20028;-73
2022/10/09 07:13:49;;;;;;;12.40;8.55;;;;;;;6.98;100.00;101790.19;5057212;28;20048;-73
2022/10/09 07:16:19;;;;;;;10.68;8.85;;;;;;;7.08;100.00;101791.38;5063936;28;20064;-73
2022/10/09 07:18:44;;;;;;;11.25;8.43;;;;;;;7.16;100.00;101795.09;5056783;28;20060;-73
2022/10/09 07:21:10;;;;;;;12.15;8.40;;;;;;;7.27;100.00;101804.16;5059478;28;20061;-73
2022/10/09 07:23:35;;;;;;;12.82;8.48;;;;;;;7.37;100.00;101800.94;5063554;28;20040;-73
2022/10/09 07:26:09;;;;;;;18.23;9.65;;;;;;;7.52;100.00;101794.28;5064829;28;20040;-73
2022/10/09 07:28:34;;;;;;;11.90;9.80;;;;;;;7.65;100.00;101792.06;5066141;28;20040;-73
2022/10/09 07:31:04;;;;;;;16.33;9.80;;;;;;;7.82;100.00;101789.84;5059579;28;20090;-74
2022/10/09 07:33:29;;;;;;;12.85;9.65;;;;;;;7.94;100.00;101798.88;5060448;28;20539;-73
2022/10/09 07:35:56;;;;;;;10.85;8.90;;;;;;;8.06;100.00;101799.19;5064824;28;20048;-73
2022/10/09 07:38:23;;;;;;;12.50;9.00;;;;;;;8.16;100.00;101795.94;5065719;28;20050;-73
2022/10/09 07:40:48;;;;;;;14.18;8.50;;;;;;;8.28;100.00;101795.34;5059344;28;20039;-73
2022/10/09 07:43:15;;;;;;;13.25;8.13;;;;;;;8.40;100.00;101794.75;5060320;28;20033;-73
2022/10/09 07:45:40;;;;;;;13.70;9.07;;;;;;;8.53;100.00;101796.81;5058969;28;20041;-73
2022/10/09 07:48:05;;;;;;;13.82;9.45;;;;;;;8.58;100.00;101800.44;5062224;28;20048;-73
2022/10/09 07:50:30;;;;;;;10.88;9.38;;;;;;;8.65;100.00;101805.00;5063691;28;20043;-73
2022/10/09 07:52:56;;;;;;;11.27;9.05;;;;;;;8.73;100.00;101805.16;5063557;28;20029;-73
2022/10/09 07:55:21;;;;;;;14.07;9.00;;;;;;;8.82;100.00;101805.34;5065756;28;20036;-73
2022/10/09 07:57:46;;;;;;;11.35;8.82;;;;;;;8.94;100.00;101794.19;5063667;28;20128;-73
2022/10/09 08:00:12;;;;;;;9.02;7.70;;;;;;;9.05;100.00;101791.78;5063030;28;20040;-73
2022/10/09 08:02:37;;;;;;;9.25;7.78;;;;;;;9.12;100.00;101797.19;5064948;28;20040;-73
2022/10/09 08:05:03;;;;;;;11.75;8.65;;;;;;;9.25;100.00;101800.06;5064095;28;20405;-73
2022/10/09 08:07:28;;;;;;;11.25;8.25;;;;;;;9.34;100.00;101805.53;5057393;28;20141;-73
2022/10/09 08:09:53;;;;;;;11.77;8.65;;;;;;;9.40;100.00;101806.50;5064893;28;20106;-73
2022/10/09 08:12:19;;;;;;;12.13;8.90;;;;;;;9.45;100.00;101803.97;5066005;28;20402;-73
2022/10/09 08:14:47;;;;;;;10.68;8.60;;;;;;;9.55;100.00;101800.66;5059286;28;20502;-73
2022/10/09 08:17:13;;;;;;;9.55;8.10;;;;;;;9.69;100.00;101798.25;5063197;28;20055;-73
2022/10/09 08:19:38;;;;;;;12.20;8.55;;;;;;;9.78;99.69;101802.81;5063979;28;20032;-73
2022/10/09 08:22:03;;;;;;;14.57;8.45;;;;;;;9.87;99.63;101802.97;5064583;28;20448;-73
2022/10/09 08:24:29;;;;;;;9.90;7.88;;;;;;;9.91;98.84;101799.53;5058801;28;20482;-73
2022/10/09 08:26:54;;;;;;;12.52;7.85;;;;;;;9.97;98.76;101802.25;5061880;28;20066;-73
2022/10/09 08:29:20;;;;;;;10.50;7.18;;;;;;;10.07;97.32;101805.94;5062182;28;20035;-73
2022/10/09 08:31:45;;;;;;;11.65;7.65;;;;;;;10.18;96.43;101803.47;5061369;28;20399;-73
2022/10/09 08:34:10;;;;;;;12.50;7.30;;;;;;;10.26;95.21;101800.06;5059653;28;20377;-73
2022/10/09 08:36:36;;;;;;;10.65;7.35;;;;;;;10.33;94.40;101803.75;5064314;28;20064;-73
2022/10/09 08:39:01;;;;;;;10.13;6.97;;;;;;;10.39;93.93;101801.19;5061192;28;20094;-73
2022/10/09 08:41:45;;;;;;;11.00;7.05;;;;;;;10.45;93.35;101798.66;5065006;28;20086;-72
2022/10/09 08:44:31;;;;;;;11.00;7.90;;;;;;;10.52;93.14;101800.50;5062311;28;20032;-73
2022/10/09 08:47:02;;;;;;;11.98;7.47;;;;;;;10.65;92.41;101798.03;5061378;28;20044;-73
2022/10/09 08:49:49;;;;;;;8.10;6.85;;;;;;;10.73;92.21;101804.31;5061895;28;20052;-73
2022/10/09 08:52:33;;;;;;;11.07;6.95;;;;;;;10.77;91.93;101798.22;5063657;28;20422;-73
2022/10/09 08:55:07;;;;;;;9.20;7.20;;;;;;;10.83;91.16;101800.94;5062261;28;20064;-73
2022/10/09 08:57:33;;;;;;;8.43;7.18;;;;;;;10.89;91.39;101802.75;5064389;28;20079;-73
2022/10/09 08:59:58;;;;;;;12.75;7.57;;;;;;;10.97;91.40;101804.63;5059996;28;20032;-73
2022/10/09 09:02:47;;;;;;;12.98;7.10;;;;;;;11.07;90.87;101802.09;5043763;28;20021;-73
2022/10/09 09:05:39;;;;;;;14.25;7.10;;;;;;;11.17;89.45;101802.22;5061101;28;20037;-73
2022/10/09 09:08:21;;;;;;;10.75;7.35;;;;;;;11.21;89.92;101797.84;5059394;28;20053;-73
2022/10/09 09:11:13;;;;;;;9.05;7.18;;;;;;;11.31;90.13;101794.44;5058737;28;20041;-73
2022/10/09 09:14:04;;;;;;;10.15;7.32;;;;;;;11.43;89.94;101792.84;5059448;28;20124;-73
2022/10/09 09:16:52;;;;;;;15.07;7.95;;;;;;;11.55;90.46;101799.13;5059511;28;20040;-73
2022/10/09 09:19:35;;;;;;;12.73;6.78;;;;;;;11.63;89.86;101791.25;5059330;28;20495;-73
2022/10/09 09:22:00;;;;;;;10.18;6.88;;;;;;;11.68;89.49;101792.19;5057511;28;20406;-73
2022/10/09 09:24:45;;;;;;;8.20;6.97;;;;;;;11.75;88.67;101791.38;5063771;28;20039;-73
2022/10/09 09:27:18;;;;;;;12.77;6.50;;;;;;;11.82;88.85;101787.91;5057042;28;20041;-73
2022/10/09 09:29:53;;;;;;;10.57;7.35;;;;;;;11.87;88.15;101789.72;5062762;28;20117;-73
2022/10/09 09:32:22;;;;;;;9.13;6.57;;;;;;;11.94;87.86;101781.88;5063084;28;20043;-73
2022/10/09 09:34:47;;;;;;;10.45;6.93;;;;;;;12.03;87.30;101789.00;5061655;28;20044;-73
2022/10/09 09:37:13;;;;;;;11.07;6.50;;;;;;;12.08;87.17;101789.94;5060823;28;20041;-73
2022/10/09 09:39:39;;;;;;;11.10;6.15;;;;;;;12.09;86.64;101785.53;5062788;28;20056;-73
2022/10/09 09:42:07;;;;;;;8.40;6.10;;;;;;;12.17;86.22;101779.41;5061544;28;20120;-73
2022/10/09 09:44:36;;;;;;;8.90;6.05;;;;;;;12.23;86.05;101776.78;5064073;28;20040;-73
2022/10/09 09:47:02;;;;;;;8.70;6.35;;;;;;;12.27;85.63;101772.41;5061278;28;20395;-73
2022/10/09 09:49:28;;;;;;;9.80;6.57;;;;;;;12.34;85.27;101771.59;5062354;28;20040;-73
2022/10/09 09:51:56;;;;;;;11.80;6.30;;;;;;;12.47;85.18;101770.78;5061587;28;20533;-73
2022/10/09 09:54:24;;;;;;;8.55;6.40;;;;;;;12.53;84.31;101769.06;5056069;28;20029;-73
2022/10/09 09:56:53;;;;;;;10.63;6.57;;;;;;;12.54;84.66;101766.41;5053175;28;20064;-73
2022/10/09 09:59:32;;;;;;;12.63;6.60;;;;;;;12.54;84.63;101770.81;5056700;28;20116;-73
2022/10/09 10:02:17;;;;;;;9.63;6.03;;;;;;;12.58;84.25;101762.03;5060075;28;20489;-73
2022/10/09 10:04:51;;;;;;;9.90;5.65;;;;;;;12.72;83.56;101755.88;5063432;28;20543;-73
2022/10/09 10:07:34;;;;;;;9.95;5.95;;;;;;;12.87;83.31;101754.19;5057363;28;20032;-74
2022/10/09 10:10:18;;;;;;;10.05;5.90;;;;;;;12.89;80.87;101755.06;5056329;28;20494;-73
2022/10/09 10:12:55;;;;;;;11.93;5.80;;;;;;;12.94;81.78;101751.59;5063637;28;20075;-73
2022/10/09 10:15:29;;;;;;;15.57;6.07;;;;;;;13.02;80.40;101746.31;5059106;28;20112;-73
2022/10/09 10:17:59;;;;;;;9.07;5.65;;;;;;;12.88;81.34;101748.88;5058346;28;20032;-74
2022/10/09 10:20:26;;;;;;;11.07;5.38;;;;;;;13.04;81.03;101743.66;5057604;28;20072;-73
2022/10/09 10:22:54;;;;;;;6.35;5.20;;;;;;;13.15;80.31;101740.16;5061923;28;20040;-73
2022/10/09 10:25:24;;;;;;;11.20;5.82;;;;;;;13.28;79.95;101734.91;5062226;28;20041;-74
2022/10/09 10:27:56;;;;;;;9.07;5.43;;;;;;;13.32;76.59;101739.34;5059321;28;20589;-73
2022/10/09 10:30:22;;;;;;;11.93;5.40;;;;;;;13.41;75.98;101738.47;5061097;28;20112;-73
2022/10/09 10:33:22;;;;;;;10.43;5.57;;;;;;;13.56;76.58;101736.72;5061434;28;20115;-73
2022/10/09 10:35:51;;;;;;;11.25;6.13;;;;;;;13.64;78.32;101735.84;5009086;28;20042;-73
2022/10/09 10:38:38;;;;;;;8.00;5.15;;;;;;;13.75;77.50;101726.09;5047945;28;20056;-73
2022/10/09 10:41:29;;;;;;;9.40;5.90;;;;;;;13.81;77.31;101734.06;5049751;28;20056;-73
2022/10/09 10:44:02;;;;;;;13.75;5.15;;;;;;;13.85;76.70;101727.88;5056841;28;20040;-73
2022/10/09 10:46:33;;;;;;;16.17;5.45;;;;;;;13.88;75.25;101726.97;5060671;28;20581;-73
2022/10/09 10:48:59;;;;;;;9.52;5.35;;;;;;;13.78;75.46;101724.34;5062754;28;20039;-73
2022/10/09 10:51:54;;;;;;;9.85;5.82;;;;;;;13.95;74.39;101718.13;5057079;28;20081;-73
2022/10/09 10:54:36;;;;;;;10.13;5.47;;;;;;;14.15;75.02;101720.78;5047586;28;20541;-73
2022/10/09 10:57:29;;;;;;;7.63;5.68;;;;;;;14.33;73.98;101717.16;5055152;28;20570;-73
2022/10/09 11:00:08;;;;;;;13.13;6.20;;;;;;;14.48;73.33;101717.13;5053968;28;20029;-73
2022/10/09 11:02:58;;;;;;;14.68;6.07;;;;;;;14.56;71.87;101704.72;5061610;28;20049;-74
2022/10/09 11:05:26;;;;;;;9.65;5.75;;;;;;;14.53;71.79;101706.53;5061747;28;20047;-74
2022/10/09 11:08:04;;;;;;;6.97;5.72;;;;;;;14.41;72.67;101708.31;5055921;28;20676;-74
2022/10/09 11:10:58;;;;;;;8.80;5.53;;;;;;;14.38;72.10;101699.44;5060325;28;20048;-74
2022/10/09 11:13:29;;;;;;;10.02;6.07;;;;;;;14.45;73.45;101704.72;5061889;28;20064;-74
2022/10/09 11:16:22;;;;;;;15.73;6.35;;;;;;;14.69;71.89;101686.97;5052749;28;20040;-73
2022/10/09 11:19:04;;;;;;;11.95;6.30;;;;;;;14.90;71.76;101693.94;5058996;28;20403;-74
2022/10/09 11:21:48;;;;;;;;;;;;;;;15.25;69.74;101684.88;5056565;28;20029;-74
2022/10/09 11:24:49;;;;;;;9.65;7.18;;;;;;;15.71;67.66;101681.88;5059140;28;20497;-73
2022/10/09 11:27:39;;;;;;;9.75;6.93;;;;;;;16.09;67.00;101672.63;5057020;28;20037;-74
2022/10/09 11:30:10;;;;;;;10.68;6.85;;;;;;;16.30;64.80;101669.72;5057917;28;20387;-73
2022/10/09 11:33:20;;;;;;;9.80;7.57;;;;;;;16.37;62.11;101670.53;5060206;28;20029;-74